createdAt,value
2023-02-09T00:01:31.341Z,103086.75
2023-02-09T00:03:59.759Z,103073.47
2023-02-09T00:06:29.910Z,103070.97
2023-02-09T00:08:58.764Z,103066.16
2023-02-09T00:11:48.988Z,103072.16
2023-02-09T00:14:21.419Z,103074.25
2023-02-09T00:16:50.283Z,103078.97
2023-02-09T00:19:18.403Z,103076.56
2023-02-09T00:21:46.185Z,103089.97
2023-02-09T00:24:14.282Z,103087.44
2023-02-09T00:26:42.731Z,103086.94
2023-02-09T00:29:10.504Z,103101.09
2023-02-09T00:31:38.087Z,103104.31
2023-02-09T00:34:06.269Z,103106.81
2023-02-09T00:36:33.661Z,103106.19
2023-02-09T00:39:01.293Z,103115.44
2023-02-09T00:41:47.559Z,103114.38
2023-02-09T00:44:14.751Z,103107.38
2023-02-09T00:46:41.728Z,103106.97
2023-02-09T00:49:08.968Z,103112.16
2023-02-09T00:51:36.135Z,103108.09
2023-02-09T00:54:03.804Z,103106.53
2023-02-09T00:56:30.941Z,103102.97
2023-02-09T00:58:57.912Z,103094.00
2023-02-09T01:01:25.002Z,103110.72
2023-02-09T01:03:52.093Z,103096.09
2023-02-09T01:06:19.045Z,103113.44
2023-02-09T01:08:46.016Z,103108.97
2023-02-09T01:11:15.820Z,103098.66
2023-02-09T01:13:44.383Z,103107.25
2023-02-09T01:16:15.823Z,103104.56
2023-02-09T01:18:43.906Z,103095.66
2023-02-09T01:21:22.085Z,103101.69
2023-02-09T01:23:50.088Z,103102.19
2023-02-09T01:26:17.789Z,103095.13
2023-02-09T01:28:48.911Z,103109.75
2023-02-09T01:31:36.126Z,103090.19
2023-02-09T01:34:04.643Z,103079.44
2023-02-09T01:36:32.812Z,103072.78
2023-02-09T01:39:02.156Z,103053.09
2023-02-09T01:41:29.792Z,103051.28
2023-02-09T01:44:12.281Z,103045.56
2023-02-09T01:46:39.990Z,103048.44
2023-02-09T01:49:17.384Z,103049.91
2023-02-09T01:51:54.742Z,103051.38
2023-02-09T01:54:49.524Z,103049.84
2023-02-09T01:57:24.402Z,103057.44
2023-02-09T01:59:58.839Z,103055.16
2023-02-09T02:02:26.317Z,103053.03
2023-02-09T02:04:53.713Z,103045.09
2023-02-09T02:07:43.121Z,103046.34
2023-02-09T02:10:10.837Z,103048.78
2023-02-09T02:12:39.606Z,103036.97
2023-02-09T02:15:07.931Z,103031.84
2023-02-09T02:17:54.407Z,103041.41
2023-02-09T02:20:26.926Z,103050.38
2023-02-09T02:23:27.967Z,103043.69
2023-02-09T02:26:09.637Z,103042.25
2023-02-09T02:29:14.816Z,103043.41
2023-02-09T02:32:27.981Z,103034.22
2023-02-09T02:34:59.864Z,103021.91
2023-02-09T02:37:48.026Z,102994.38
2023-02-09T02:40:27.218Z,102969.91
2023-02-09T02:43:12.275Z,102973.31
2023-02-09T02:46:11.090Z,102986.22
2023-02-09T02:48:56.361Z,102993.53
2023-02-09T02:51:43.492Z,102987.78
2023-02-09T02:54:19.170Z,102990.72
2023-02-09T02:56:58.972Z,102995.56
2023-02-09T02:59:34.905Z,102986.03
2023-02-09T03:02:20.127Z,102968.88
2023-02-09T03:04:51.049Z,102976.78
2023-02-09T03:07:18.779Z,102985.50
2023-02-09T03:09:55.393Z,102990.38
2023-02-09T03:12:47.401Z,102970.81
2023-02-09T03:15:28.929Z,102977.88
2023-02-09T03:18:29.640Z,102979.13
2023-02-09T03:21:14.911Z,102973.91
2023-02-09T03:23:59.768Z,102976.75
2023-02-09T03:26:36.804Z,102978.97
2023-02-09T03:29:15.637Z,102968.84
2023-02-09T03:31:42.897Z,102975.28
2023-02-09T03:34:10.675Z,102981.84
2023-02-09T03:36:39.836Z,102972.28
2023-02-09T03:39:06.841Z,102974.06
2023-02-09T03:41:33.769Z,102971.66
2023-02-09T03:44:19.686Z,102973.91
2023-02-09T03:46:46.740Z,102966.19
2023-02-09T03:49:14.990Z,102958.47
2023-02-09T03:51:42.967Z,102955.41
2023-02-09T03:54:10.021Z,102957.66
2023-02-09T03:56:37.621Z,102944.75
2023-02-09T03:59:06.127Z,102947.50
2023-02-09T04:01:33.475Z,102950.53
2023-02-09T04:04:02.807Z,102953.44
2023-02-09T04:06:31.778Z,102949.91
2023-02-09T04:09:03.497Z,102934.09
2023-02-09T04:11:30.529Z,102932.31
2023-02-09T04:13:58.058Z,102916.06
2023-02-09T04:16:25.262Z,102929.34
2023-02-09T04:18:53.048Z,102921.78
2023-02-09T04:21:20.137Z,102910.09
2023-02-09T04:23:47.760Z,102924.16
2023-02-09T04:26:15.502Z,102925.31
2023-02-09T04:28:42.492Z,102913.66
2023-02-09T04:31:09.974Z,102913.44
2023-02-09T04:33:37.275Z,102907.34
2023-02-09T04:36:05.623Z,102915.38
2023-02-09T04:38:32.802Z,102927.72
2023-02-09T04:41:02.696Z,102927.00
2023-02-09T04:43:30.766Z,102934.88
2023-02-09T04:45:58.471Z,102927.25
2023-02-09T04:48:27.505Z,102944.03
2023-02-09T04:50:55.086Z,102946.50
2023-02-09T04:53:22.915Z,102945.44
2023-02-09T04:55:52.950Z,102944.81
2023-02-09T04:58:39.603Z,102946.16
2023-02-09T05:01:08.170Z,102955.25
2023-02-09T05:03:35.405Z,102953.47
2023-02-09T05:06:05.690Z,102965.59
2023-02-09T05:08:33.072Z,102966.81
2023-02-09T05:11:00.314Z,102971.44
2023-02-09T05:13:28.301Z,102973.44
2023-02-09T05:15:56.259Z,102945.59
2023-02-09T05:18:24.340Z,102932.50
2023-02-09T05:20:51.405Z,102945.34
2023-02-09T05:23:18.579Z,102938.91
2023-02-09T05:25:46.192Z,102950.63
2023-02-09T05:28:13.191Z,102957.44
2023-02-09T05:30:40.355Z,102945.34
2023-02-09T05:33:07.479Z,102939.91
2023-02-09T05:35:49.892Z,102945.00
2023-02-09T05:38:16.900Z,102931.03
2023-02-09T05:40:45.259Z,102929.72
2023-02-09T05:43:12.598Z,102945.91
2023-02-09T05:45:39.622Z,102935.06
2023-02-09T05:48:06.994Z,102938.06
2023-02-09T05:50:35.727Z,102935.13
2023-02-09T05:53:03.510Z,102946.47
2023-02-09T05:55:30.648Z,102947.69
2023-02-09T05:57:57.577Z,102944.34
2023-02-09T06:00:25.363Z,102944.34
2023-02-09T06:02:52.663Z,102941.97
2023-02-09T06:05:21.968Z,102947.38
2023-02-09T06:07:49.541Z,102959.59
2023-02-09T06:10:18.222Z,102961.78
2023-02-09T06:12:45.255Z,102974.53
2023-02-09T06:15:13.008Z,102979.66
2023-02-09T06:17:40.001Z,102977.59
2023-02-09T06:20:07.564Z,102979.09
2023-02-09T06:22:34.608Z,102973.97
2023-02-09T06:25:02.630Z,102980.31
2023-02-09T06:27:29.592Z,102986.00
2023-02-09T06:29:56.542Z,102998.06
2023-02-09T06:32:23.510Z,102993.38
2023-02-09T06:34:50.512Z,103005.59
2023-02-09T06:37:17.465Z,103000.56
2023-02-09T06:39:44.497Z,103013.91
2023-02-09T06:42:11.655Z,103012.16
2023-02-09T06:44:38.586Z,103023.03
2023-02-09T06:47:05.617Z,103019.72
2023-02-09T06:49:32.774Z,103015.03
2023-02-09T06:51:59.985Z,103016.28
2023-02-09T06:54:29.291Z,103009.47
2023-02-09T06:57:02.132Z,103025.53
2023-02-09T06:59:29.238Z,103029.88
2023-02-09T07:01:56.238Z,103020.78
2023-02-09T07:04:23.248Z,103039.25
2023-02-09T07:06:50.481Z,103038.38
2023-02-09T07:09:17.409Z,103031.25
2023-02-09T07:11:44.476Z,103035.47
2023-02-09T07:14:11.456Z,103049.31
2023-02-09T07:16:38.403Z,103050.09
2023-02-09T07:19:05.449Z,103049.84
2023-02-09T07:21:32.430Z,103050.81
2023-02-09T07:23:59.456Z,103050.97
2023-02-09T07:26:26.519Z,103034.22
2023-02-09T07:28:53.535Z,103037.94
2023-02-09T07:31:20.715Z,103041.91
2023-02-09T07:33:48.015Z,103047.75
2023-02-09T07:36:16.756Z,103040.03
2023-02-09T07:38:44.457Z,103037.28
2023-02-09T07:41:19.422Z,103020.94
2023-02-09T07:43:47.159Z,103023.41
2023-02-09T07:46:20.013Z,103014.72
2023-02-09T07:48:48.182Z,103023.38
2023-02-09T07:51:17.790Z,103014.88
2023-02-09T07:53:44.800Z,103005.53
2023-02-09T07:56:12.694Z,103014.50
2023-02-09T07:58:40.113Z,103012.91
2023-02-09T08:01:10.572Z,103018.50
2023-02-09T08:03:39.175Z,103009.66
2023-02-09T08:06:45.215Z,102997.28
2023-02-09T08:09:16.651Z,103010.72
2023-02-09T08:11:57.533Z,103009.72
2023-02-09T08:14:31.381Z,103023.38
2023-02-09T08:17:27.983Z,103021.47
2023-02-09T08:20:04.092Z,103009.06
2023-02-09T08:22:35.479Z,103010.56
2023-02-09T08:25:04.485Z,103011.94
2023-02-09T08:27:32.087Z,103039.94
2023-02-09T08:30:00.426Z,103021.56
2023-02-09T08:32:27.544Z,103029.00
2023-02-09T08:34:54.525Z,103028.78
2023-02-09T08:37:21.496Z,103026.72
2023-02-09T08:39:48.421Z,103024.94
2023-02-09T08:42:15.382Z,103031.69
2023-02-09T08:44:42.346Z,103038.91
2023-02-09T08:47:09.378Z,103041.34
2023-02-09T08:49:36.552Z,103037.25
2023-02-09T08:52:03.696Z,103044.38
2023-02-09T08:54:30.878Z,103045.41
2023-02-09T08:56:57.867Z,103054.94
2023-02-09T08:59:24.832Z,103052.59
2023-02-09T09:01:51.927Z,103057.84
2023-02-09T09:04:21.024Z,103045.03
2023-02-09T09:06:48.365Z,103039.53
2023-02-09T09:09:15.659Z,103028.91
2023-02-09T09:11:42.599Z,103030.31
2023-02-09T09:14:09.590Z,103026.59
2023-02-09T09:16:36.650Z,103045.50
2023-02-09T09:19:05.353Z,103047.84
2023-02-09T09:21:33.610Z,103051.78
2023-02-09T09:24:00.565Z,103045.38
2023-02-09T09:26:27.581Z,103045.63
2023-02-09T09:28:54.551Z,103036.44
2023-02-09T09:31:21.642Z,103041.94
2023-02-09T09:33:48.647Z,103032.97
2023-02-09T09:36:15.978Z,103033.91
2023-02-09T09:38:43.724Z,103038.59
2023-02-09T09:41:26.392Z,103033.53
2023-02-09T09:43:55.062Z,103042.09
2023-02-09T09:46:35.774Z,103054.19
2023-02-09T09:49:03.971Z,103053.69
2023-02-09T09:51:38.566Z,103062.69
2023-02-09T09:54:13.187Z,103060.66
2023-02-09T09:56:41.686Z,103041.66
2023-02-09T09:59:34.941Z,103034.00
2023-02-09T10:02:18.321Z,103039.31
2023-02-09T10:04:45.535Z,103042.44
2023-02-09T10:07:20.128Z,103041.09
2023-02-09T10:10:01.106Z,103048.94
2023-02-09T10:12:49.190Z,103056.72
2023-02-09T10:15:31.466Z,103053.63
2023-02-09T10:17:59.837Z,103052.56
2023-02-09T10:21:03.649Z,103074.38
2023-02-09T10:23:43.541Z,103075.09
2023-02-09T10:26:10.874Z,103078.41
2023-02-09T10:28:51.332Z,103080.03
2023-02-09T10:31:29.501Z,103081.22
2023-02-09T10:34:30.291Z,103089.97
2023-02-09T10:37:28.152Z,103092.75
2023-02-09T10:40:14.695Z,103099.84
2023-02-09T10:42:57.817Z,103104.84
2023-02-09T10:45:33.428Z,103110.91
2023-02-09T10:48:40.662Z,103108.03
2023-02-09T10:51:15.532Z,103102.13
2023-02-09T10:54:02.104Z,103105.75
2023-02-09T10:56:46.866Z,103104.81
2023-02-09T10:59:25.787Z,103102.63
2023-02-09T11:02:03.346Z,103107.06
2023-02-09T11:04:39.564Z,103109.69
2023-02-09T11:07:13.577Z,103105.09
2023-02-09T11:09:46.653Z,103104.88
2023-02-09T11:12:14.364Z,103117.31
2023-02-09T11:14:43.062Z,103116.78
2023-02-09T11:17:27.152Z,103115.41
2023-02-09T11:20:24.836Z,103119.38
2023-02-09T11:23:13.524Z,103100.44
2023-02-09T11:26:17.753Z,103085.47
2023-02-09T11:28:47.410Z,103084.03
2023-02-09T11:32:07.155Z,103088.06
2023-02-09T11:35:15.428Z,103087.66
2023-02-09T11:37:57.127Z,103078.25
2023-02-09T11:40:43.072Z,103084.59
2023-02-09T11:43:19.024Z,103070.56
2023-02-09T11:45:52.922Z,103067.78
2023-02-09T11:48:34.307Z,103095.75
2023-02-09T11:51:14.801Z,103088.44
2023-02-09T11:53:59.708Z,103081.63
2023-02-09T11:56:28.486Z,103079.34
2023-02-09T11:59:34.538Z,103084.25
2023-02-09T12:02:42.458Z,103082.47
2023-02-09T12:05:17.001Z,103077.41
2023-02-09T12:08:26.997Z,103082.66
2023-02-09T12:11:14.351Z,103076.75
2023-02-09T12:13:55.158Z,103083.94
2023-02-09T12:16:44.720Z,103083.81
2023-02-09T12:19:37.080Z,103092.97
2023-02-09T12:22:35.058Z,103086.34
2023-02-09T12:25:22.152Z,103094.56
2023-02-09T12:28:29.627Z,103099.47
2023-02-09T12:31:19.085Z,103088.44
2023-02-09T12:33:46.002Z,103089.63
2023-02-09T12:36:12.909Z,103093.72
2023-02-09T12:39:03.930Z,103088.19
2023-02-09T12:41:51.020Z,103095.09
2023-02-09T12:44:18.492Z,103094.19
2023-02-09T12:46:45.588Z,103088.41
2023-02-09T12:49:12.484Z,103099.34
2023-02-09T12:51:55.052Z,103087.75
2023-02-09T12:54:51.011Z,103072.03
2023-02-09T12:57:20.723Z,103072.25
2023-02-09T12:59:51.074Z,103086.44
2023-02-09T13:02:55.053Z,103066.66
2023-02-09T13:05:38.120Z,103059.56
2023-02-09T13:08:29.834Z,103053.41
2023-02-09T13:10:57.717Z,103063.25
2023-02-09T13:13:33.803Z,103068.56
2023-02-09T13:16:01.736Z,103052.63
2023-02-09T13:18:49.401Z,103058.81
2023-02-09T13:21:31.748Z,103055.25
2023-02-09T13:24:10.814Z,103053.38
2023-02-09T13:26:58.290Z,103053.31
2023-02-09T13:29:29.119Z,103049.84
2023-02-09T13:32:15.432Z,103048.16
2023-02-09T13:35:01.410Z,103050.19
2023-02-09T13:37:49.649Z,103046.28
2023-02-09T13:40:33.625Z,103054.53
2023-02-09T13:43:12.038Z,103043.63
2023-02-09T13:45:53.947Z,103052.25
2023-02-09T13:48:33.758Z,103056.28
2023-02-09T13:51:13.873Z,103056.81
2023-02-09T13:53:40.846Z,103070.09
2023-02-09T13:56:12.152Z,103071.28
2023-02-09T13:58:40.464Z,103066.66
2023-02-09T14:01:14.498Z,103067.44
2023-02-09T14:03:58.896Z,103072.50
2023-02-09T14:06:52.953Z,103069.03
2023-02-09T14:09:42.599Z,103072.63
2023-02-09T14:12:18.097Z,103075.09
2023-02-09T14:15:12.913Z,103067.91
2023-02-09T14:17:40.113Z,103074.22
2023-02-09T14:20:25.529Z,103086.13
2023-02-09T14:22:59.432Z,103080.53
2023-02-09T14:25:30.772Z,103082.25
2023-02-09T14:27:58.494Z,103083.22
2023-02-09T14:30:34.183Z,103093.56
2023-02-09T14:33:03.440Z,103095.13
2023-02-09T14:35:41.768Z,103089.84
2023-02-09T14:38:36.823Z,103095.03
2023-02-09T14:41:33.031Z,103090.31
2023-02-09T14:44:20.468Z,103102.84
2023-02-09T14:46:57.384Z,103081.13
2023-02-09T14:49:26.202Z,103082.81
2023-02-09T14:52:05.457Z,103083.50
2023-02-09T14:54:43.066Z,103094.84
2023-02-09T14:57:12.211Z,103092.31
2023-02-09T14:59:39.153Z,103094.75
2023-02-09T15:02:27.016Z,103096.91
2023-02-09T15:04:55.293Z,103098.66
2023-02-09T15:07:30.489Z,103100.50
2023-02-09T15:09:57.531Z,103101.50
2023-02-09T15:12:28.213Z,103118.72
2023-02-09T15:14:59.703Z,103115.91
2023-02-09T15:17:30.543Z,103122.25
2023-02-09T15:19:59.055Z,103117.06
2023-02-09T15:22:26.114Z,103116.75
2023-02-09T15:24:54.554Z,103120.03
2023-02-09T15:27:33.660Z,103127.59
2023-02-09T15:30:04.030Z,103119.81
2023-02-09T15:32:31.651Z,103128.56
2023-02-09T15:34:58.658Z,103134.88
2023-02-09T15:37:35.052Z,103136.84
2023-02-09T15:40:40.586Z,103133.41
2023-02-09T15:43:41.817Z,103144.22
2023-02-09T15:46:28.539Z,103139.44
2023-02-09T15:48:55.787Z,103148.72
2023-02-09T15:51:25.256Z,103151.44
2023-02-09T15:53:55.097Z,103159.09
2023-02-09T15:56:22.409Z,103165.06
2023-02-09T15:58:54.345Z,103162.22
2023-02-09T16:01:21.371Z,103162.72
2023-02-09T16:03:49.067Z,103163.16
2023-02-09T16:06:24.740Z,103163.56
2023-02-09T16:08:53.764Z,103170.50
2023-02-09T16:11:33.043Z,103166.19
2023-02-09T16:14:01.479Z,103163.84
2023-02-09T16:16:30.646Z,103165.84
2023-02-09T16:18:57.647Z,103164.50
2023-02-09T16:21:29.510Z,103171.22
2023-02-09T16:23:59.066Z,103165.38
2023-02-09T16:26:28.113Z,103171.75
2023-02-09T16:28:55.687Z,103172.22
2023-02-09T16:31:23.920Z,103178.16
2023-02-09T16:33:51.505Z,103180.25
2023-02-09T16:36:24.771Z,103185.03
2023-02-09T16:38:51.774Z,103187.34
2023-02-09T16:41:37.911Z,103194.16
2023-02-09T16:44:21.953Z,103186.50
2023-02-09T16:46:55.548Z,103184.09
2023-02-09T16:49:35.264Z,103198.06
2023-02-09T16:52:26.004Z,103194.41
2023-02-09T16:54:57.801Z,103206.66
2023-02-09T16:57:26.887Z,103211.19
2023-02-09T16:59:54.801Z,103207.34
2023-02-09T17:02:58.620Z,103213.97
2023-02-09T17:05:34.908Z,103215.94
2023-02-09T17:08:13.782Z,103219.03
2023-02-09T17:10:40.869Z,103222.78
2023-02-09T17:13:07.807Z,103231.22
2023-02-09T17:15:48.630Z,103231.13
2023-02-09T17:18:28.986Z,103235.63
2023-02-09T17:21:00.879Z,103232.66
2023-02-09T17:23:30.352Z,103230.22
2023-02-09T17:25:57.746Z,103225.75
2023-02-09T17:28:27.722Z,103230.34
2023-02-09T17:30:59.467Z,103243.28
2023-02-09T17:33:36.439Z,103246.25
2023-02-09T17:36:25.826Z,103240.22
2023-02-09T17:38:52.199Z,103251.16
2023-02-09T17:41:37.147Z,103258.56
2023-02-09T17:44:24.088Z,103266.97
2023-02-09T17:46:54.524Z,103264.97
2023-02-09T17:49:21.707Z,103256.47
2023-02-09T17:51:49.556Z,103275.97
2023-02-09T17:54:20.226Z,103272.72
2023-02-09T17:56:47.589Z,103279.16
2023-02-09T17:59:14.941Z,103281.50
2023-02-09T18:01:46.037Z,103290.56
2023-02-09T18:04:22.783Z,103295.25
2023-02-09T18:06:50.181Z,103292.66
2023-02-09T18:09:17.176Z,103289.28
2023-02-09T18:12:07.886Z,103284.84
2023-02-09T18:14:35.093Z,103286.63
2023-02-09T18:17:04.396Z,103291.03
2023-02-09T18:19:32.918Z,103294.72
2023-02-09T18:22:01.873Z,103291.97
2023-02-09T18:24:32.845Z,103295.84
2023-02-09T18:26:59.913Z,103288.16
2023-02-09T18:29:29.682Z,103293.34
2023-02-09T18:31:59.799Z,103297.03
2023-02-09T18:34:27.773Z,103287.06
2023-02-09T18:36:54.934Z,103288.63
2023-02-09T18:39:22.260Z,103287.97
2023-02-09T18:41:54.843Z,103298.00
2023-02-09T18:44:28.706Z,103299.56
2023-02-09T18:46:57.601Z,103303.97
2023-02-09T18:49:24.612Z,103315.06
2023-02-09T18:51:52.290Z,103315.97
2023-02-09T18:54:19.538Z,103321.56
2023-02-09T18:56:46.467Z,103321.13
2023-02-09T18:59:13.459Z,103318.69
2023-02-09T19:01:41.071Z,103322.50
2023-02-09T19:04:08.814Z,103316.19
2023-02-09T19:06:36.404Z,103323.94
2023-02-09T19:09:03.601Z,103327.53
2023-02-09T19:11:30.660Z,103319.94
2023-02-09T19:14:16.535Z,103322.66
2023-02-09T19:16:43.577Z,103329.69
2023-02-09T19:19:12.486Z,103325.59
2023-02-09T19:21:39.553Z,103331.09
2023-02-09T19:24:07.485Z,103333.72
2023-02-09T19:26:34.501Z,103342.03
2023-02-09T19:29:02.095Z,103352.34
2023-02-09T19:31:29.059Z,103356.88
2023-02-09T19:33:57.608Z,103356.22
2023-02-09T19:36:27.912Z,103354.31
2023-02-09T19:38:56.491Z,103361.19
2023-02-09T19:41:25.707Z,103355.72
2023-02-09T19:43:57.506Z,103362.19
2023-02-09T19:46:25.292Z,103362.53
2023-02-09T19:48:53.908Z,103367.81
2023-02-09T19:51:21.445Z,103372.53
2023-02-09T19:53:48.685Z,103368.75
2023-02-09T19:56:17.673Z,103380.22
2023-02-09T19:58:45.098Z,103377.88
2023-02-09T20:01:12.631Z,103387.31
2023-02-09T20:03:40.233Z,103388.84
2023-02-09T20:06:10.414Z,103382.75
2023-02-09T20:08:39.378Z,103385.38
2023-02-09T20:11:17.219Z,103388.94
2023-02-09T20:13:44.722Z,103388.75
2023-02-09T20:16:19.706Z,103378.81
2023-02-09T20:18:49.891Z,103382.47
2023-02-09T20:21:18.482Z,103383.78
2023-02-09T20:23:46.683Z,103386.13
2023-02-09T20:26:24.520Z,103387.41
2023-02-09T20:28:51.520Z,103388.09
2023-02-09T20:31:26.229Z,103391.22
2023-02-09T20:33:53.977Z,103398.50
2023-02-09T20:36:23.771Z,103396.47
2023-02-09T20:38:51.460Z,103412.16
2023-02-09T20:41:18.793Z,103398.84
2023-02-09T20:44:04.964Z,103405.19
2023-02-09T20:46:52.238Z,103415.56
2023-02-09T20:49:19.725Z,103410.91
2023-02-09T20:51:47.652Z,103418.53
2023-02-09T20:54:15.212Z,103418.78
2023-02-09T20:56:42.498Z,103422.06
2023-02-09T20:59:10.646Z,103416.41
2023-02-09T21:01:39.144Z,103425.44
2023-02-09T21:04:07.469Z,103427.81
2023-02-09T21:06:37.513Z,103422.47
2023-02-09T21:09:11.239Z,103424.16
2023-02-09T21:11:38.336Z,103431.59
2023-02-09T21:14:05.535Z,103432.78
2023-02-09T21:16:33.423Z,103434.38
2023-02-09T21:19:01.867Z,103444.03
2023-02-09T21:21:29.531Z,103439.16
2023-02-09T21:23:56.574Z,103440.06
2023-02-09T21:26:24.528Z,103439.31
2023-02-09T21:28:56.215Z,103440.66
2023-02-09T21:31:27.719Z,103431.28
2023-02-09T21:33:54.897Z,103436.44
2023-02-09T21:36:22.014Z,103446.06
2023-02-09T21:38:48.975Z,103437.66
2023-02-09T21:41:44.117Z,103436.03
2023-02-09T21:44:12.673Z,103436.09
2023-02-09T21:46:39.696Z,103436.28
2023-02-09T21:49:07.196Z,103427.91
2023-02-09T21:51:35.067Z,103429.88
2023-02-09T21:54:02.122Z,103445.09
2023-02-09T21:56:29.112Z,103442.91
2023-02-09T21:58:56.052Z,103445.38
2023-02-09T22:01:23.040Z,103438.06
2023-02-09T22:03:52.755Z,103443.66
2023-02-09T22:06:19.772Z,103428.94
2023-02-09T22:08:46.745Z,103442.16
2023-02-09T22:11:13.710Z,103442.44
2023-02-09T22:13:40.694Z,103442.00
2023-02-09T22:16:09.457Z,103437.53
2023-02-09T22:18:37.357Z,103437.13
2023-02-09T22:21:08.090Z,103441.03
2023-02-09T22:23:35.100Z,103445.16
2023-02-09T22:26:04.600Z,103450.25
2023-02-09T22:28:33.385Z,103455.44
2023-02-09T22:31:13.909Z,103457.31
2023-02-09T22:33:40.948Z,103469.06
2023-02-09T22:36:12.759Z,103450.19
2023-02-09T22:38:40.262Z,103451.06
2023-02-09T22:41:21.530Z,103449.03
2023-02-09T22:43:56.635Z,103452.66
2023-02-09T22:46:27.141Z,103438.09
2023-02-09T22:48:57.524Z,103443.31
2023-02-09T22:51:28.353Z,103453.81
2023-02-09T22:53:57.209Z,103460.47
2023-02-09T22:56:24.896Z,103462.75
2023-02-09T22:58:57.229Z,103451.25
2023-02-09T23:01:24.272Z,103461.16
2023-02-09T23:03:51.438Z,103458.22
2023-02-09T23:06:23.430Z,103461.41
2023-02-09T23:08:58.325Z,103466.13
2023-02-09T23:11:26.499Z,103467.72
2023-02-09T23:14:08.592Z,103462.53
2023-02-09T23:16:37.660Z,103457.88
2023-02-09T23:19:07.931Z,103462.25
2023-02-09T23:21:38.598Z,103456.81
2023-02-09T23:24:06.105Z,103453.25
2023-02-09T23:26:33.454Z,103450.38
2023-02-09T23:29:04.966Z,103460.00
2023-02-09T23:31:32.329Z,103468.44
2023-02-09T23:33:59.424Z,103462.72
2023-02-09T23:36:30.319Z,103455.63
2023-02-09T23:39:06.369Z,103453.59
2023-02-09T23:41:34.900Z,103455.78
2023-02-09T23:44:03.056Z,103463.28
2023-02-09T23:46:30.351Z,103461.41
2023-02-09T23:48:58.245Z,103464.94
2023-02-09T23:51:30.292Z,103468.78
2023-02-09T23:54:00.277Z,103466.66
2023-02-09T23:56:29.930Z,103465.25
2023-02-09T23:58:57.115Z,103468.84
